Time;durP1;ratioP1;P1;durP2;ratioP2;P2;SDS_P1;SDS_P2;PMS_P1;PMS_P2;Temp;Humidity;BMP_temperature;BMP_pressure;BME280_temperature;BME280_humidity;BME280_pressure;Samples;Min_cycle;Max_cycle;Signal;HPM_P1;HPM_P2
2022/07/20 00:03:54;;;;;;;9.77;2.93;;;;;;;26.72;30.62;99641.56;12213476;19;20023;-82
2022/07/20 00:07:56;;;;;;;5.43;2.53;;;;;;;26.61;30.59;99646.09;12190627;19;20059;-81
2022/07/20 00:11:57;;;;;;;6.00;3.00;;;;;;;26.54;30.98;99638.25;12221293;19;20448;-81
2022/07/20 00:15:59;;;;;;;5.60;3.10;;;;;;;26.50;30.91;99643.00;12202833;19;20007;-80
2022/07/20 00:20:02;;;;;;;5.88;3.00;;;;;;;26.48;31.07;99650.16;12191858;19;20007;-80
2022/07/20 00:24:05;;;;;;;6.80;2.80;;;;;;;26.44;31.16;99649.22;12207788;19;20572;-81
2022/07/20 00:28:07;;;;;;;4.97;3.00;;;;;;;26.35;31.21;99644.56;12209548;19;20018;-82
2022/07/20 00:32:09;;;;;;;7.53;3.53;;;;;;;26.32;31.28;99641.63;12184811;19;20010;-81
2022/07/20 00:36:10;;;;;;;8.30;3.27;;;;;;;26.30;31.17;99650.47;12200688;19;20050;-81
2022/07/20 00:40:13;;;;;;;5.53;2.97;;;;;;;26.24;32.10;99646.25;12205828;19;20129;-82
2022/07/20 00:44:15;;;;;;;8.20;3.17;;;;;;;26.08;32.00;99653.84;12176150;19;20073;-81
2022/07/20 00:48:17;;;;;;;6.00;2.73;;;;;;;25.88;32.83;99650.03;12209001;19;20078;-81
2022/07/20 00:52:18;;;;;;;5.67;3.13;;;;;;;25.73;32.81;99657.22;12193800;19;20025;-82
2022/07/20 00:56:21;;;;;;;6.50;3.30;;;;;;;25.57;33.79;99654.28;12181028;19;20313;-81
2022/07/20 01:00:23;;;;;;;6.63;3.50;;;;;;;25.46;33.85;99653.09;12198873;19;20010;-82
2022/07/20 01:04:25;;;;;;;4.43;3.03;;;;;;;25.35;33.89;99654.78;12199977;19;20086;-82
2022/07/20 01:08:28;;;;;;;6.30;3.65;;;;;;;25.29;33.90;99644.91;12177040;19;20334;-82
2022/07/20 01:12:29;;;;;;;6.93;3.40;;;;;;;25.24;33.65;99649.59;12205267;19;20468;-83
2022/07/20 01:16:32;;;;;;;8.17;3.37;;;;;;;25.20;33.88;99650.66;12196144;19;20011;-83
2022/07/20 01:20:36;;;;;;;7.13;3.35;;;;;;;25.19;33.38;99641.38;12208510;19;20010;-83
2022/07/20 01:24:37;;;;;;;5.20;2.88;;;;;;;25.19;33.35;99654.63;12201290;19;20086;-83
2022/07/20 01:28:39;;;;;;;9.68;3.30;;;;;;;25.14;33.44;99644.44;12188592;19;20078;-83
2022/07/20 01:32:41;;;;;;;5.13;3.15;;;;;;;25.09;33.86;99636.16;12199257;19;20006;-82
2022/07/20 01:36:42;;;;;;;5.97;3.40;;;;;;;24.99;34.35;99645.09;12199525;19;20421;-80
2022/07/20 01:40:44;;;;;;;9.23;3.45;;;;;;;24.96;34.32;99640.97;12188743;19;20090;-83
2022/07/20 01:44:46;;;;;;;7.40;3.00;;;;;;;24.90;34.41;99642.38;12198534;19;20082;-83
2022/07/20 01:48:47;;;;;;;7.93;3.30;;;;;;;24.90;34.32;99638.75;12203161;19;20015;-83
2022/07/20 01:52:50;;;;;;;7.95;3.28;;;;;;;24.83;34.59;99644.94;12185702;19;20013;-82
2022/07/20 01:56:52;;;;;;;5.72;3.15;;;;;;;24.77;34.33;99646.31;12204433;19;20010;-83
2022/07/20 02:00:53;;;;;;;6.38;3.22;;;;;;;24.75;34.34;99637.41;12206709;19;20070;-82
2022/07/20 02:04:55;;;;;;;6.20;2.90;;;;;;;24.72;34.68;99635.31;12180130;19;20042;-83
2022/07/20 02:08:57;;;;;;;8.23;2.90;;;;;;;24.73;34.73;99634.13;12196660;19;20489;-83
2022/07/20 02:12:59;;;;;;;9.10;2.93;;;;;;;24.76;34.63;99637.06;12200794;19;20010;-82
2022/07/20 02:17:00;;;;;;;8.23;4.33;;;;;;;24.78;34.35;99636.72;12184820;19;20070;-80
2022/07/20 02:21:02;;;;;;;7.73;3.37;;;;;;;24.83;34.22;99632.84;12209517;19;20787;-81
2022/07/20 02:25:04;;;;;;;6.90;3.23;;;;;;;24.83;34.72;99633.66;12194608;19;20031;-82
2022/07/20 02:29:06;;;;;;;4.97;3.08;;;;;;;24.81;34.60;99629.53;12178610;19;20007;-81
2022/07/20 02:33:07;;;;;;;5.85;2.92;;;;;;;24.81;35.20;99636.03;12203855;19;20011;-81
2022/07/20 02:37:09;;;;;;;10.80;3.42;;;;;;;24.82;35.11;99631.19;12193366;19;20010;-82
2022/07/20 02:41:11;;;;;;;7.50;3.63;;;;;;;24.79;34.93;99627.09;12174899;19;20117;-82
2022/07/20 02:45:13;;;;;;;8.90;3.58;;;;;;;24.76;35.02;99639.06;12203049;19;20018;-84
2022/07/20 02:49:14;;;;;;;9.57;3.25;;;;;;;24.74;35.15;99630.13;12197719;19;20011;-84
2022/07/20 02:53:16;;;;;;;6.30;3.47;;;;;;;24.71;34.83;99630.81;12183435;19;20010;-84
2022/07/20 02:57:18;;;;;;;7.57;3.07;;;;;;;24.70;34.93;99629.19;12189404;19;20110;-84
2022/07/20 03:01:19;;;;;;;6.70;3.47;;;;;;;24.69;34.70;99638.78;12197235;19;20489;-83
2022/07/20 03:05:21;;;;;;;5.70;3.30;;;;;;;24.69;35.00;99635.97;12173240;19;20023;-84
2022/07/20 03:09:23;;;;;;;5.30;3.20;;;;;;;24.69;34.73;99633.16;12198347;19;20091;-80
2022/07/20 03:13:25;;;;;;;7.53;3.35;;;;;;;24.63;35.20;99626.09;12198916;19;20035;-80
2022/07/20 03:17:26;;;;;;;5.32;2.85;;;;;;;24.54;35.58;99632.66;12170115;19;20010;-80
2022/07/20 03:21:28;;;;;;;6.03;3.78;;;;;;;24.47;35.54;99631.59;12259056;19;20002;-82
2022/07/20 03:25:30;;;;;;;6.20;3.22;;;;;;;24.40;35.36;99626.50;12208830;19;20047;-84
2022/07/20 03:29:31;;;;;;;7.57;3.20;;;;;;;24.34;35.99;99634.31;12188440;19;20019;-83
2022/07/20 03:33:33;;;;;;;7.60;3.43;;;;;;;24.32;35.58;99630.22;12211613;19;20472;-83
2022/07/20 03:37:35;;;;;;;9.93;3.85;;;;;;;24.33;35.97;99631.84;12193754;19;20468;-84
2022/07/20 03:41:37;;;;;;;9.30;3.47;;;;;;;24.33;35.91;99637.47;12197933;19;20081;-83
2022/07/20 03:45:38;;;;;;;4.78;3.30;;;;;;;24.30;36.44;99639.03;12197698;19;20331;-83
2022/07/20 03:49:40;;;;;;;9.73;3.67;;;;;;;24.29;36.08;99642.97;12178631;19;20031;-84
2022/07/20 03:53:41;;;;;;;7.23;3.60;;;;;;;24.33;36.79;99634.66;12195427;19;20031;-83
2022/07/20 03:57:46;;;;;;;6.05;3.92;;;;;;;24.34;36.48;99647.59;12195940;19;20011;-80
2022/07/20 04:01:47;;;;;;;7.05;3.63;;;;;;;24.32;36.63;99642.28;12176611;19;20024;-83
2022/07/20 04:05:49;;;;;;;6.73;4.20;;;;;;;24.31;36.48;99645.47;12199107;19;20010;-82
2022/07/20 04:09:50;;;;;;;5.20;3.28;;;;;;;24.33;36.79;99648.75;12193388;19;20102;-83
2022/07/20 04:13:52;;;;;;;6.03;3.38;;;;;;;24.32;37.11;99653.56;12186495;19;20011;-79
2022/07/20 04:17:54;;;;;;;7.72;3.63;;;;;;;24.33;37.04;99643.97;12211940;19;20073;-81
2022/07/20 04:21:58;;;;;;;8.00;3.65;;;;;;;24.32;37.20;99647.91;12217853;19;20019;-83
2022/07/20 04:26:00;;;;;;;6.90;3.58;;;;;;;24.33;37.40;99652.41;12178330;19;20010;-83
2022/07/20 04:30:03;;;;;;;8.50;3.33;;;;;;;24.35;37.62;99652.03;12215951;19;20110;-83
2022/07/20 04:34:05;;;;;;;7.90;3.50;;;;;;;24.35;37.65;99649.22;12200540;19;20024;-82
2022/07/20 04:38:06;;;;;;;9.10;3.28;;;;;;;24.32;37.89;99647.91;12185022;19;20016;-82
2022/07/20 04:42:08;;;;;;;6.43;3.43;;;;;;;24.28;38.02;99652.63;12207131;19;20010;-82
2022/07/20 04:46:10;;;;;;;8.60;3.70;;;;;;;24.24;38.27;99662.06;12210432;19;20062;-82
2022/07/20 04:50:12;;;;;;;6.30;3.10;;;;;;;24.22;38.80;99664.44;12178351;19;20006;-82
2022/07/20 04:54:14;;;;;;;6.68;4.25;;;;;;;24.21;38.70;99658.00;12201330;19;20047;-82
2022/07/20 04:58:16;;;;;;;10.73;3.33;;;;;;;24.23;39.07;99654.81;12204138;19;20033;-82
2022/07/20 05:02:18;;;;;;;9.30;3.40;;;;;;;24.24;39.43;99667.72;12181863;19;20014;-82
2022/07/20 05:06:20;;;;;;;5.38;3.70;;;;;;;24.23;39.91;99677.34;12209418;19;20082;-81
2022/07/20 05:10:21;;;;;;;7.65;3.70;;;;;;;24.26;40.24;99676.66;12208422;19;20023;-81
2022/07/20 05:14:24;;;;;;;6.28;3.60;;;;;;;24.37;40.26;99677.88;12177858;19;20010;-81
2022/07/20 05:18:28;;;;;;;6.15;3.45;;;;;;;24.50;39.94;99681.59;12173409;19;20018;-81
2022/07/20 05:22:30;;;;;;;5.72;3.63;;;;;;;24.61;39.99;99681.97;12203529;19;20027;-80
2022/07/20 05:26:31;;;;;;;6.57;4.22;;;;;;;24.69;40.85;99678.22;12178139;19;20002;-80
2022/07/20 05:30:33;;;;;;;7.23;4.10;;;;;;;24.74;40.43;99681.66;12208435;19;20021;-80
2022/07/20 05:34:35;;;;;;;6.32;3.80;;;;;;;24.77;40.52;99678.13;12209376;19;20006;-80
2022/07/20 05:38:37;;;;;;;9.13;3.80;;;;;;;24.82;40.67;99679.94;12182319;19;20007;-80
2022/07/20 05:42:40;;;;;;;7.22;3.70;;;;;;;24.86;41.03;99688.50;12204427;19;20476;-80
2022/07/20 05:46:42;;;;;;;5.88;3.20;;;;;;;24.83;41.14;99689.19;12185121;19;20006;-81
2022/07/20 05:50:44;;;;;;;6.77;3.37;;;;;;;24.80;41.11;99690.72;12202950;19;20006;-80
2022/07/20 05:54:46;;;;;;;9.57;3.80;;;;;;;24.83;41.38;99694.84;12211034;19;20382;-80
2022/07/20 05:58:48;;;;;;;8.07;3.70;;;;;;;24.88;41.86;99701.06;12176950;19;20006;-81
2022/07/20 06:02:50;;;;;;;8.15;4.13;;;;;;;24.96;41.50;99711.44;12202450;19;20006;-80
2022/07/20 06:06:51;;;;;;;11.80;4.30;;;;;;;25.10;41.63;99715.91;12207440;19;20007;-80
2022/07/20 06:10:53;;;;;;;12.85;4.15;;;;;;;25.24;42.01;99719.25;12178503;19;20011;-80
2022/07/20 06:14:55;;;;;;;10.00;3.90;;;;;;;25.35;42.37;99722.47;12192885;19;20002;-80
2022/07/20 06:18:56;;;;;;;6.57;3.65;;;;;;;25.48;41.85;99717.63;12209605;19;20010;-80
2022/07/20 06:22:58;;;;;;;8.37;4.43;;;;;;;25.64;41.41;99724.22;12188707;19;20011;-80
2022/07/20 06:27:00;;;;;;;8.95;4.30;;;;;;;25.85;41.17;99722.13;12201086;19;20007;-80
2022/07/20 06:31:03;;;;;;;10.67;4.17;;;;;;;26.02;40.87;99718.19;12197329;19;20006;-81
2022/07/20 06:35:05;;;;;;;;;;;;;;;26.22;40.62;99716.41;12183757;19;20511;-80
2022/07/20 06:39:06;;;;;;;12.98;3.83;;;;;;;26.44;39.92;99705.72;12203195;19;19911;-81
2022/07/20 06:43:08;;;;;;;8.40;4.43;;;;;;;26.65;39.67;99706.38;12201941;19;20011;-81
2022/07/20 06:47:10;;;;;;;7.30;4.00;;;;;;;26.94;38.49;99707.97;12180988;19;20236;-80
2022/07/20 06:51:14;;;;;;;10.15;4.20;;;;;;;27.24;37.87;99711.22;12200208;19;20364;-81
2022/07/20 06:55:16;;;;;;;10.80;4.45;;;;;;;27.56;37.44;99716.06;12205844;19;20070;-80
2022/07/20 06:59:18;;;;;;;10.97;4.23;;;;;;;27.86;36.83;99719.25;12178999;19;20015;-79
2022/07/20 07:03:20;;;;;;;12.50;4.63;;;;;;;28.15;36.75;99724.38;12200062;19;20356;-80
2022/07/20 07:07:22;;;;;;;7.60;4.07;;;;;;;28.47;35.31;99724.28;12200726;19;20017;-80
2022/07/20 07:11:24;;;;;;;9.95;4.15;;;;;;;28.82;34.10;99721.38;12177048;19;20032;-77
2022/07/20 07:15:26;;;;;;;7.45;4.30;;;;;;;29.15;34.15;99716.31;12200675;19;20485;-80
2022/07/20 07:19:28;;;;;;;16.25;4.93;;;;;;;29.42;33.54;99718.03;12199270;19;20018;-80
2022/07/20 07:23:29;;;;;;;8.38;4.00;;;;;;;29.72;33.33;99723.00;12181339;19;20496;-78
2022/07/20 07:27:31;;;;;;;12.70;5.30;;;;;;;30.04;32.96;99722.66;12206243;19;20006;-81
2022/07/20 07:31:33;;;;;;;12.27;4.25;;;;;;;30.32;33.16;99720.25;12203941;19;20015;-81
2022/07/20 07:35:34;;;;;;;13.60;4.63;;;;;;;30.59;32.43;99714.50;12180829;19;20017;-81
2022/07/20 07:39:37;;;;;;;9.95;4.78;;;;;;;30.83;32.14;99713.19;12197071;19;20010;-81
2022/07/20 07:43:38;;;;;;;7.85;4.05;;;;;;;31.09;31.50;99715.09;12190936;19;20006;-80
2022/07/20 07:47:41;;;;;;;13.05;3.97;;;;;;;31.36;31.28;99712.13;12216042;19;20010;-82
2022/07/20 07:51:43;;;;;;;14.07;4.43;;;;;;;31.61;31.51;99718.03;12217117;19;20010;-81
2022/07/20 07:55:45;;;;;;;11.95;4.93;;;;;;;31.85;30.99;99727.97;12193075;19;20015;-79
2022/07/20 07:59:46;;;;;;;;;;;;;;;32.04;30.75;99713.50;12219683;19;20018;-81
2022/07/20 08:03:48;;;;;;;10.40;4.13;;;;;;;32.19;30.29;99712.34;12206938;19;19946;-82
2022/07/20 08:07:50;;;;;;;8.73;4.30;;;;;;;32.47;30.07;99718.63;12187555;19;20082;-80
2022/07/20 08:11:52;;;;;;;11.10;4.80;;;;;;;32.53;30.11;99717.00;12204445;19;20015;-81
2022/07/20 08:15:53;;;;;;;;;;;;;;;32.74;29.34;99725.66;12202133;19;20486;-80
2022/07/20 08:19:56;;;;;;;9.70;4.93;;;;;;;32.71;29.57;99720.75;12185571;19;19907;-82
2022/07/20 08:23:57;;;;;;;11.65;4.57;;;;;;;32.90;29.83;99711.03;12206906;19;20284;-81
2022/07/20 08:28:28;;;;;;;11.77;4.93;;;;;;;33.34;28.32;99716.41;12217330;19;20007;-82
2022/07/20 08:32:31;;;;;;;9.30;4.72;;;;;;;33.75;28.21;99709.50;12182437;19;20010;-80
2022/07/20 08:36:33;;;;;;;9.30;5.00;;;;;;;33.79;27.78;99713.16;12216140;19;20048;-82
2022/07/20 08:40:38;;;;;;;11.00;4.97;;;;;;;33.83;27.71;99711.13;12217480;19;20013;-81
2022/07/20 08:44:41;;;;;;;8.32;4.88;;;;;;;34.11;27.24;99713.16;12186390;19;20022;-81
2022/07/20 08:48:42;;;;;;;12.57;5.50;;;;;;;34.43;27.04;99715.91;12216812;19;20010;-81
2022/07/20 08:52:45;;;;;;;;;;;;;;;34.58;26.29;99718.75;12184315;19;20337;-81
2022/07/20 08:56:47;;;;;;;10.32;6.03;;;;;;;34.58;26.41;99724.47;12210607;19;19923;-80
2022/07/20 09:00:49;;;;;;;;;;;;;;;34.72;26.00;99738.72;12205717;19;20483;-83
2022/07/20 09:04:53;;;;;;;11.25;5.22;;;;;;;34.81;26.06;99726.81;12181181;19;19914;-81
2022/07/20 09:09:00;;;;;;;9.48;5.57;;;;;;;34.90;26.10;99730.03;12204694;19;20072;-81
2022/07/20 09:13:04;;;;;;;11.50;5.85;;;;;;;34.98;25.82;99740.19;12200394;19;20018;-81
2022/07/20 09:17:20;;;;;;;14.77;5.55;;;;;;;35.24;25.53;99744.56;12179835;19;20014;-82
2022/07/20 09:21:29;;;;;;;7.43;5.15;;;;;;;35.52;24.96;99754.22;12199299;19;20002;-81
2022/07/20 09:25:32;;;;;;;11.18;5.85;;;;;;;35.53;25.26;99762.38;12208151;19;20476;-82
2022/07/20 09:29:34;;;;;;;10.57;5.60;;;;;;;35.46;25.09;99759.56;12186050;19;20007;-85
2022/07/20 09:33:36;;;;;;;8.43;5.32;;;;;;;35.31;25.64;99752.28;12220720;19;20006;-83
2022/07/20 09:37:38;;;;;;;16.52;6.82;;;;;;;35.29;25.64;99747.00;12218853;19;20011;-83
2022/07/20 09:41:43;;;;;;;13.35;5.35;;;;;;;35.38;25.73;99750.19;12186575;19;20679;-83
2022/07/20 09:45:45;;;;;;;9.60;5.53;;;;;;;35.67;25.80;99741.41;12207099;19;20017;-83
2022/07/20 09:49:46;;;;;;;;;;;;;;;35.88;25.30;99742.47;12182492;19;20503;-83
2022/07/20 09:53:49;;;;;;;8.38;5.57;;;;;;;36.04;24.68;99739.88;12197581;19;19918;-82
2022/07/20 09:57:53;;;;;;;10.32;5.63;;;;;;;36.39;23.70;99738.66;12206686;19;20018;-82
2022/07/20 10:01:55;;;;;;;12.25;6.10;;;;;;;36.63;22.99;99735.94;12183669;19;20022;-81
2022/07/20 10:05:57;;;;;;;7.15;5.90;;;;;;;36.75;22.84;99732.50;12203156;19;20045;-83
2022/07/20 10:09:59;;;;;;;11.13;6.43;;;;;;;37.03;22.52;99727.63;12200743;19;20045;-82
2022/07/20 10:14:04;;;;;;;6.50;5.60;;;;;;;37.06;21.23;99730.44;12186143;19;20004;-80
2022/07/20 10:18:08;;;;;;;11.50;6.43;;;;;;;37.28;21.46;99730.16;12206861;19;20116;-83
2022/07/20 10:22:10;;;;;;;8.50;6.18;;;;;;;37.33;21.17;99732.50;12203301;19;20035;-82
2022/07/20 10:26:25;;;;;;;8.88;6.35;;;;;;;37.46;21.83;99732.72;12183984;19;20074;-83
2022/07/20 10:30:28;;;;;;;12.98;6.72;;;;;;;37.49;21.30;99717.53;12200019;19;20480;-80
2022/07/20 10:34:38;;;;;;;10.13;6.18;;;;;;;37.40;21.79;99730.34;12215873;19;20016;-79
2022/07/20 10:38:40;;;;;;;11.00;6.13;;;;;;;37.60;21.79;99718.13;12184206;19;20002;-85
2022/07/20 10:42:53;;;;;;;15.90;6.55;;;;;;;37.71;21.49;99729.44;12207463;19;20013;-82
2022/07/20 10:46:54;;;;;;;15.27;6.82;;;;;;;37.76;21.15;99728.97;12184968;19;20059;-83
2022/07/20 10:50:56;;;;;;;7.78;6.25;;;;;;;37.57;21.45;99727.63;12198338;19;20023;-83
2022/07/20 10:54:58;;;;;;;9.68;6.80;;;;;;;37.67;21.51;99726.66;12211143;19;20010;-82
2022/07/20 10:59:00;;;;;;;11.45;6.97;;;;;;;37.72;21.38;99719.56;12184666;19;20023;-84
2022/07/20 11:03:03;;;;;;;9.70;6.10;;;;;;;37.93;21.54;99719.22;12218285;19;20010;-85
2022/07/20 11:07:05;;;;;;;13.73;6.90;;;;;;;38.19;20.92;99714.59;12208786;19;20015;-84
2022/07/20 11:11:15;;;;;;;13.05;6.57;;;;;;;38.04;20.98;99702.56;12193214;19;20542;-82
2022/07/20 11:15:17;;;;;;;11.13;6.25;;;;;;;38.12;21.14;99690.94;12204139;19;20010;-85
2022/07/20 11:19:20;;;;;;;13.30;6.47;;;;;;;38.40;20.63;99695.31;12219161;19;20030;-85
2022/07/20 11:23:24;;;;;;;9.68;6.65;;;;;;;38.48;20.70;99697.59;12200174;19;20002;-83
2022/07/20 11:27:25;;;;;;;11.80;6.88;;;;;;;38.37;20.69;99691.22;12208260;19;20010;-85
2022/07/20 11:31:29;;;;;;;10.40;6.82;;;;;;;38.69;20.53;99689.75;12226784;19;20014;-84
2022/07/20 11:35:31;;;;;;;10.40;7.50;;;;;;;38.88;20.49;99691.84;12180250;19;20007;-86
2022/07/20 11:39:33;;;;;;;12.13;7.25;;;;;;;39.07;20.21;99678.63;12205605;19;20014;-85
2022/07/20 11:43:36;;;;;;;11.88;7.28;;;;;;;39.07;20.52;99674.94;12208719;19;20476;-83
2022/07/20 11:47:37;;;;;;;8.10;6.63;;;;;;;39.32;19.95;99678.03;12197663;19;20011;-84
2022/07/20 11:51:41;;;;;;;10.50;7.40;;;;;;;39.62;19.48;99667.38;12219030;19;20003;-85
2022/07/20 11:55:44;;;;;;;13.82;7.13;;;;;;;39.84;19.37;99665.59;12199409;19;20010;-84
2022/07/20 11:59:45;;;;;;;12.57;7.55;;;;;;;39.96;19.18;99666.91;12208153;19;20003;-84
2022/07/20 12:03:50;;;;;;;11.13;7.22;;;;;;;40.24;19.08;99665.31;12210147;19;20007;-84
2022/07/20 12:08:07;;;;;;;10.75;7.85;;;;;;;40.22;19.26;99649.69;12191668;19;20015;-86
2022/07/20 12:12:44;;;;;;;8.27;6.90;;;;;;;40.27;19.32;99646.25;12211635;19;20010;-84
2022/07/20 12:16:44;;;;;;;9.02;6.82;;;;;;;40.72;18.85;99651.91;12212921;19;20472;-85
2022/07/20 12:21:11;;;;;;;8.02;7.07;;;;;;;41.21;18.47;99645.81;12196432;19;20022;-85
2022/07/20 12:25:13;;;;;;;11.90;7.10;;;;;;;41.94;17.88;99647.06;12214985;19;20011;-86
2022/07/20 12:29:25;;;;;;;9.25;6.75;;;;;;;42.59;17.40;99643.38;12190170;19;20010;-84
2022/07/20 12:33:27;;;;;;;14.40;7.28;;;;;;;43.51;16.75;99640.06;12214195;19;20074;-87
2022/07/20 12:37:53;;;;;;;12.02;6.43;;;;;;;44.19;16.19;99639.97;12197874;19;20496;-87
2022/07/20 12:42:12;;;;;;;13.57;6.75;;;;;;;44.46;16.28;99639.94;12186542;19;20015;-86
2022/07/20 12:46:32;;;;;;;10.38;6.90;;;;;;;44.79;15.65;99633.41;12213762;19;20468;-85
2022/07/20 12:50:35;;;;;;;9.68;6.55;;;;;;;45.35;15.79;99631.84;12194825;19;20343;-85
2022/07/20 12:54:38;;;;;;;10.23;7.45;;;;;;;45.60;15.24;99624.75;12204164;19;20709;-85
2022/07/20 12:59:01;;;;;;;10.68;6.43;;;;;;;45.20;15.18;99628.06;12199209;19;20035;-85
2022/07/20 13:03:04;;;;;;;14.32;7.28;;;;;;;45.27;14.97;99626.91;12213639;19;20007;-84
2022/07/20 13:07:06;;;;;;;10.93;6.30;;;;;;;46.06;15.12;99621.50;12209960;19;20015;-85
2022/07/20 13:11:08;;;;;;;10.45;6.80;;;;;;;46.44;14.37;99619.84;12190855;19;20007;-81
2022/07/20 13:15:10;;;;;;;10.52;6.80;;;;;;;46.34;14.37;99606.66;12215429;19;20002;-84
2022/07/20 13:19:32;;;;;;;13.27;7.05;;;;;;;46.75;13.93;99603.94;12215543;19;20034;-86
2022/07/20 13:23:33;;;;;;;14.07;6.90;;;;;;;47.55;13.93;99603.84;12185904;19;20014;-84
2022/07/20 13:27:37;;;;;;;9.98;6.65;;;;;;;47.99;13.62;99602.78;12201797;19;20014;-84
2022/07/20 13:31:39;;;;;;;12.45;6.68;;;;;;;48.14;13.50;99607.22;12217877;19;20016;-84
2022/07/20 13:35:52;;;;;;;9.30;6.63;;;;;;;48.54;13.27;99605.50;12185445;19;20015;-85
2022/07/20 13:39:54;;;;;;;7.07;6.30;;;;;;;48.37;13.07;99604.50;12204601;19;20020;-84
2022/07/20 13:43:55;;;;;;;10.95;6.30;;;;;;;48.81;12.60;99597.47;12179850;19;20015;-81
2022/07/20 13:47:57;;;;;;;12.50;7.40;;;;;;;49.24;12.33;99612.19;12209062;19;20015;-86
2022/07/20 13:51:59;;;;;;;13.38;6.82;;;;;;;49.15;12.53;99606.50;12209817;19;20026;-86
2022/07/20 13:56:22;;;;;;;9.25;6.82;;;;;;;49.27;12.11;99609.00;12182644;19;20002;-85
2022/07/20 14:00:23;;;;;;;7.88;6.32;;;;;;;49.53;11.87;99604.31;12202954;19;20349;-85
2022/07/20 14:04:25;;;;;;;10.25;6.65;;;;;;;49.23;12.26;99608.44;12209180;19;20011;-86
2022/07/20 14:08:27;;;;;;;11.48;6.65;;;;;;;49.48;12.46;99611.75;12185579;19;20010;-84
2022/07/20 14:12:30;;;;;;;9.43;6.15;;;;;;;49.48;12.30;99611.75;12247250;19;20011;-84
2022/07/20 14:16:33;;;;;;;10.65;6.35;;;;;;;49.38;12.46;99592.81;12221456;19;20018;-86
2022/07/20 14:20:35;;;;;;;10.10;6.78;;;;;;;49.07;12.22;99597.41;12193050;19;20023;-86
2022/07/20 14:24:57;;;;;;;9.70;7.30;;;;;;;48.25;12.80;99586.06;12215849;19;20006;-85
2022/07/20 14:29:02;;;;;;;8.77;7.10;;;;;;;48.21;13.23;99575.94;12187424;19;20015;-85
2022/07/20 14:33:04;;;;;;;11.15;6.88;;;;;;;49.13;12.77;99566.06;12213098;19;20033;-85
2022/07/20 14:37:08;;;;;;;15.70;6.63;;;;;;;49.06;12.39;99566.56;12207257;19;20026;-84
2022/07/20 14:41:10;;;;;;;8.27;7.10;;;;;;;48.13;13.06;99566.84;12178873;19;20018;-83
2022/07/20 14:45:12;;;;;;;11.60;7.22;;;;;;;47.10;13.16;99568.19;12216000;19;20006;-84
2022/07/20 14:49:13;;;;;;;8.98;7.25;;;;;;;45.67;14.29;99557.44;12196597;19;20027;-84
2022/07/20 14:53:17;;;;;;;10.77;8.32;;;;;;;44.24;15.74;99561.72;12184424;19;20006;-82
2022/07/20 14:57:19;;;;;;;12.30;8.32;;;;;;;43.47;15.60;99556.09;12205340;19;20029;-83
2022/07/20 15:01:21;;;;;;;11.75;8.43;;;;;;;42.81;16.54;99556.44;12201150;19;20337;-84
2022/07/20 15:05:23;;;;;;;12.60;8.63;;;;;;;42.44;16.77;99550.44;12185923;19;20033;-83
2022/07/20 15:09:25;;;;;;;18.52;13.48;;;;;;;41.09;18.97;99553.38;12200996;19;20006;-83
2022/07/20 15:13:56;;;;;;;20.98;15.23;;;;;;;40.13;20.46;99560.91;12206925;19;20630;-82
2022/07/20 15:18:05;;;;;;;17.88;15.50;;;;;;;40.42;19.90;99560.03;12184305;19;20014;-83
2022/07/20 15:22:07;;;;;;;24.17;16.35;;;;;;;41.49;19.44;99550.72;12195129;19;20034;-84
2022/07/20 15:26:10;;;;;;;23.90;16.17;;;;;;;42.32;19.17;99551.34;12180828;19;20074;-82
2022/07/20 15:30:12;;;;;;;18.83;15.27;;;;;;;41.89;19.26;99532.75;12213325;19;20018;-82
2022/07/20 15:34:14;;;;;;;18.95;15.65;;;;;;;41.25;19.97;99538.75;12199235;19;20027;-82
2022/07/20 15:38:16;;;;;;;19.88;16.27;;;;;;;40.46;20.43;99540.53;12171430;19;20046;-79
2022/07/20 15:42:19;;;;;;;18.70;16.70;;;;;;;39.76;21.07;99537.25;12194334;19;20083;-85
2022/07/20 15:46:20;;;;;;;23.10;18.23;;;;;;;38.75;22.85;99533.28;12214055;19;20014;-85
2022/07/20 15:50:23;;;;;;;25.90;18.20;;;;;;;38.43;23.22;99528.28;12183540;19;20003;-83
2022/07/20 15:54:37;;;;;;;20.73;17.95;;;;;;;38.20;23.34;99529.22;12195609;19;20006;-83
2022/07/20 15:58:38;;;;;;;22.08;17.73;;;;;;;38.01;23.92;99533.75;12198388;19;20020;-84
2022/07/20 16:02:40;;;;;;;26.17;19.15;;;;;;;37.71;24.12;99526.13;12180254;19;20098;-83
2022/07/20 16:06:41;;;;;;;25.02;18.65;;;;;;;37.52;24.08;99521.19;12199804;19;20048;-81
2022/07/20 16:10:43;;;;;;;26.48;19.10;;;;;;;37.32;24.75;99526.88;12194414;19;20062;-82
2022/07/20 16:14:46;;;;;;;24.30;18.95;;;;;;;37.24;25.49;99529.06;12211606;19;20464;-84
2022/07/20 16:18:47;;;;;;;21.50;19.10;;;;;;;37.25;25.29;99535.66;12206072;19;20024;-85
2022/07/20 16:22:49;;;;;;;22.02;19.42;;;;;;;37.50;25.46;99547.50;12192377;19;20010;-82
2022/07/20 16:26:52;;;;;;;31.77;18.95;;;;;;;37.20;25.82;99551.31;12207917;19;20023;-85
2022/07/20 16:30:54;;;;;;;23.85;19.63;;;;;;;36.71;26.15;99545.16;12218324;19;20105;-83
2022/07/20 16:34:56;;;;;;;29.98;19.70;;;;;;;36.43;27.13;99569.31;12184624;19;20256;-82
2022/07/20 16:38:58;;;;;;;30.13;18.73;;;;;;;36.55;26.86;99557.28;12206585;19;20034;-81
2022/07/20 16:43:00;;;;;;;27.33;19.25;;;;;;;36.43;27.35;99552.91;12209760;19;20007;-84
2022/07/20 16:47:02;;;;;;;28.13;19.17;;;;;;;36.21;27.58;99557.34;12198105;19;20417;-83
2022/07/20 16:51:04;;;;;;;22.10;17.48;;;;;;;35.99;28.29;99559.63;12199949;19;20018;-82
2022/07/20 16:55:06;;;;;;;27.48;17.35;;;;;;;35.70;28.17;99560.00;12219861;19;20018;-85
2022/07/20 16:59:08;;;;;;;22.25;17.25;;;;;;;35.05;28.86;99548.34;12190178;19;20043;-85
2022/07/20 17:03:09;;;;;;;25.55;17.10;;;;;;;34.75;29.27;99543.28;12214591;19;20006;-85
2022/07/20 17:07:11;;;;;;;24.73;17.67;;;;;;;34.62;29.73;99551.53;12210282;19;20013;-82
2022/07/20 17:11:14;;;;;;;21.48;17.65;;;;;;;34.44;29.78;99565.91;12179690;19;20370;-84
2022/07/20 17:15:16;;;;;;;23.10;17.52;;;;;;;34.15;30.59;99562.44;12203871;19;20041;-82
2022/07/20 17:19:24;;;;;;;29.08;16.65;;;;;;;33.97;30.78;99571.06;12208062;19;20002;-82
2022/07/20 17:23:26;;;;;;;24.05;15.00;;;;;;;33.88;30.76;99575.56;12183845;19;20007;-84
2022/07/20 17:27:30;;;;;;;18.40;15.93;;;;;;;33.72;31.12;99579.69;12197679;19;20034;-85
2022/07/20 17:31:32;;;;;;;21.05;15.60;;;;;;;33.53;32.12;99575.28;12214119;19;20030;-83
2022/07/20 17:35:34;;;;;;;18.67;14.95;;;;;;;33.39;32.18;99578.13;12178648;19;20018;-81
2022/07/20 17:39:36;;;;;;;25.90;14.90;;;;;;;33.17;32.70;99573.66;12202972;19;20066;-82
2022/07/20 17:43:37;;;;;;;21.77;16.58;;;;;;;33.08;32.49;99577.75;12240118;19;20002;-85
2022/07/20 17:47:40;;;;;;;19.00;16.63;;;;;;;32.93;32.62;99590.38;12200947;19;20376;-85
2022/07/20 17:51:51;;;;;;;21.05;15.32;;;;;;;32.81;33.45;99587.88;12217414;19;20011;-85
2022/07/20 17:55:53;;;;;;;21.55;14.57;;;;;;;32.68;33.47;99591.13;12192977;19;20023;-84
2022/07/20 17:59:55;;;;;;;;;;;;;;;32.57;33.85;99590.31;12209086;19;20653;-85
2022/07/20 18:03:56;;;;;;;19.43;15.17;;;;;;;32.47;33.84;99593.13;12207274;19;19932;-83
2022/07/20 18:08:06;;;;;;;22.52;14.38;;;;;;;32.36;33.65;99596.72;12188022;19;20013;-85
2022/07/20 18:12:09;;;;;;;23.90;15.45;;;;;;;32.29;33.67;99598.75;12207342;19;20024;-83
2022/07/20 18:16:11;;;;;;;20.25;15.35;;;;;;;32.18;33.99;99608.06;12219185;19;20028;-83
2022/07/20 18:20:12;;;;;;;21.75;15.02;;;;;;;32.08;34.40;99608.03;12181101;19;20018;-83
2022/07/20 18:24:14;;;;;;;17.58;13.75;;;;;;;31.94;34.84;99623.84;12213502;19;20010;-84
2022/07/20 18:28:17;;;;;;;22.05;15.40;;;;;;;31.81;34.97;99650.22;12202790;19;20026;-84
2022/07/20 18:32:21;;;;;;;27.67;14.40;;;;;;;31.58;35.42;99696.84;12198365;19;20014;-82
2022/07/20 18:36:23;;;;;;;36.03;13.05;;;;;;;31.03;36.50;99699.59;12209826;19;20019;-84
2022/07/20 18:40:30;;;;;;;33.95;12.35;;;;;;;29.84;39.06;99728.47;12213419;19;20577;-84
2022/07/20 18:44:32;;;;;;;34.20;12.48;;;;;;;28.94;43.42;99733.72;12193353;19;20405;-82
2022/07/20 18:48:39;;;;;;;27.73;12.52;;;;;;;28.12;45.30;99773.28;12219493;19;20030;-81